Time;durP1;ratioP1;P1;durP2;ratioP2;P2;SDS_P1;SDS_P2;PMS_P1;PMS_P2;Temp;Humidity;BMP_temperature;BMP_pressure;BME280_temperature;BME280_humidity;BME280_pressure;Samples;Min_cycle;Max_cycle;Signal;HPM_P1;HPM_P2
2022/09/08 00:02:20;;;;;;;0.40;0.40;;;18.00;99.90;;;;;;5071651;28;20497;-68
2022/09/08 00:05:11;;;;;;;0.40;0.40;;;17.90;99.90;;;;;;5070881;28;20203;-71
2022/09/08 00:07:59;;;;;;;0.40;0.40;;;17.80;99.90;;;;;;5070626;28;20330;-71
2022/09/08 00:10:50;;;;;;;0.40;0.40;;;17.80;99.90;;;;;;5070912;28;20205;-71
2022/09/08 00:13:41;;;;;;;0.40;0.40;;;17.80;99.90;;;;;;5070912;28;20227;-72
2022/09/08 00:16:31;;;;;;;0.47;0.47;;;17.80;99.90;;;;;;5070815;28;20212;-71
2022/09/08 00:19:19;;;;;;;0.50;0.50;;;17.80;99.90;;;;;;5071189;28;20204;-72
2022/09/08 00:22:07;;;;;;;0.40;0.40;;;17.80;99.90;;;;;;5071347;28;20192;-70
2022/09/08 00:24:55;;;;;;;0.40;0.40;;;17.80;99.90;;;;;;5071654;28;20196;-69
2022/09/08 00:27:43;;;;;;;0.40;0.40;;;17.70;99.90;;;;;;5070256;28;20200;-68
2022/09/08 00:30:31;;;;;;;0.40;0.40;;;17.70;99.90;;;;;;5069423;28;20193;-71
2022/09/08 00:33:21;;;;;;;0.40;0.40;;;17.70;99.90;;;;;;5071747;28;20701;-69
2022/09/08 00:36:14;;;;;;;0.40;0.40;;;17.60;99.90;;;;;;5071214;28;20207;-69
2022/09/08 00:39:02;;;;;;;0.40;0.40;;;17.60;99.90;;;;;;5071805;28;20211;-71
2022/09/08 00:41:50;;;;;;;0.40;0.40;;;17.60;99.90;;;;;;5071858;28;20203;-72
2022/09/08 00:44:49;;;;;;;0.40;0.40;;;17.50;99.90;;;;;;5070422;28;20283;-69
2022/09/08 00:47:43;;;;;;;0.40;0.40;;;17.50;99.90;;;;;;5071489;28;20216;-71
2022/09/08 00:50:33;;;;;;;0.40;0.40;;;17.50;99.90;;;;;;5070439;28;20209;-69
2022/09/08 00:53:21;;;;;;;0.40;0.40;;;17.50;99.90;;;;;;5070570;28;20561;-69
2022/09/08 00:56:09;;;;;;;0.40;0.40;;;17.50;99.90;;;;;;5071146;28;20210;-71
2022/09/08 00:58:59;;;;;;;0.40;0.40;;;17.50;99.90;;;;;;5071079;28;20203;-66
2022/09/08 01:01:47;;;;;;;0.40;0.40;;;17.40;99.90;;;;;;5070531;28;20201;-68
2022/09/08 01:04:35;;;;;;;0.40;0.40;;;17.40;99.90;;;;;;5070907;28;20192;-70
2022/09/08 01:13:58;;;;;;;0.40;0.40;;;17.40;99.90;;;;;;5069712;28;20322;-70
2022/09/08 01:16:48;;;;;;;0.40;0.40;;;17.40;99.90;;;;;;5070363;28;20197;-69
2022/09/08 01:19:36;;;;;;;0.40;0.40;;;17.40;99.90;;;;;;5070542;28;20204;-69
2022/09/08 01:22:46;;;;;;;0.40;0.40;;;17.40;99.90;;;;;;5077686;28;20224;-69
2022/09/08 01:26:06;;;;;;;0.40;0.40;;;17.50;99.90;;;;;;5090980;28;20279;-70
2022/09/08 01:28:59;;;;;;;0.40;0.40;;;17.50;99.90;;;;;;5090182;28;20196;-70
2022/09/08 01:31:50;;;;;;;0.40;0.40;;;17.60;99.90;;;;;;5090329;28;20200;-70
2022/09/08 01:34:40;;;;;;;0.40;0.40;;;17.70;99.90;;;;;;5090398;28;20279;-69
2022/09/08 01:37:28;;;;;;;0.40;0.40;;;17.70;99.90;;;;;;5090922;28;20222;-71
2022/09/08 01:40:17;;;;;;;0.40;0.40;;;17.80;99.90;;;;;;5090016;28;20196;-70
2022/09/08 01:43:06;;;;;;;1.58;1.48;;;17.80;99.90;;;;;;5093584;28;20216;-68
2022/09/08 01:45:56;;;;;;;0.40;0.40;;;17.90;99.90;;;;;;5093833;28;20708;-67
2022/09/08 01:48:44;;;;;;;0.40;0.40;;;17.90;99.90;;;;;;5094585;28;20226;-71
2022/09/08 01:51:34;;;;;;;0.40;0.40;;;17.90;99.90;;;;;;5093730;28;20553;-68
2022/09/08 01:54:22;;;;;;;0.40;0.40;;;17.90;99.90;;;;;;5093898;28;20321;-68
2022/09/08 01:57:10;;;;;;;0.40;0.40;;;17.90;99.90;;;;;;5094332;28;20206;-70
2022/09/08 01:59:58;;;;;;;0.40;0.40;;;17.90;99.90;;;;;;5093564;28;20206;-68
2022/09/08 02:02:47;;;;;;;0.40;0.40;;;17.80;99.90;;;;;;5094129;28;20761;-70
2022/09/08 02:05:38;;;;;;;0.40;0.40;;;17.70;99.90;;;;;;5093612;28;20283;-70
2022/09/08 02:08:26;;;;;;;0.40;0.40;;;17.60;99.90;;;;;;5094194;28;20196;-70
2022/09/08 02:11:14;;;;;;;0.40;0.40;;;17.60;99.90;;;;;;5093259;28;20248;-70
2022/09/08 02:14:03;;;;;;;0.40;0.40;;;17.40;99.90;;;;;;5093462;28;20719;-71
2022/09/08 02:16:51;;;;;;;0.40;0.40;;;17.40;99.90;;;;;;5093973;28;20200;-71
2022/09/08 02:19:40;;;;;;;0.40;0.40;;;17.30;99.90;;;;;;5093438;28;20206;-70
2022/09/08 02:22:32;;;;;;;0.40;0.40;;;17.30;99.90;;;;;;5093791;28;20224;-71
2022/09/08 02:25:21;;;;;;;0.47;0.47;;;17.30;99.90;;;;;;5093284;28;20234;-71
2022/09/08 02:28:09;;;;;;;0.50;0.50;;;17.20;99.90;;;;;;5093878;28;20200;-70
2022/09/08 02:31:01;;;;;;;0.40;0.40;;;17.20;99.90;;;;;;5092728;28;20202;-72
2022/09/08 02:33:49;;;;;;;0.40;0.40;;;17.20;99.90;;;;;;5093504;28;20277;-72
2022/09/08 02:36:38;;;;;;;0.40;0.40;;;17.10;99.90;;;;;;5093286;28;20200;-71
2022/09/08 02:39:27;;;;;;;0.50;0.50;;;17.10;99.90;;;;;;5092542;28;20220;-69
2022/09/08 02:42:15;;;;;;;0.50;0.50;;;17.10;99.90;;;;;;5093368;28;20603;-71
2022/09/08 02:45:04;;;;;;;0.50;0.50;;;17.10;99.90;;;;;;5092945;28;20204;-71
2022/09/08 02:47:52;;;;;;;0.40;0.40;;;17.00;99.90;;;;;;5093342;28;20568;-68
2022/09/08 02:50:40;;;;;;;0.40;0.40;;;17.00;99.90;;;;;;5092814;28;20206;-71
2022/09/08 02:53:30;;;;;;;0.40;0.40;;;17.00;99.90;;;;;;5092027;28;20317;-71
2022/09/08 02:56:18;;;;;;;0.40;0.40;;;16.90;99.90;;;;;;5092600;28;20196;-71
2022/09/08 02:59:06;;;;;;;0.40;0.40;;;16.90;99.90;;;;;;5091994;28;20308;-71
2022/09/08 03:01:54;;;;;;;0.40;0.40;;;16.90;99.90;;;;;;5093056;28;20204;-70
2022/09/08 03:04:42;;;;;;;0.40;0.40;;;16.80;99.90;;;;;;5093128;28;20269;-71
2022/09/08 03:07:30;;;;;;;0.40;0.40;;;16.80;99.90;;;;;;5092436;28;20677;-71
2022/09/08 03:10:23;;;;;;;0.40;0.40;;;16.70;99.90;;;;;;5092775;28;20196;-69
2022/09/08 03:13:12;;;;;;;0.40;0.40;;;16.70;99.90;;;;;;5092596;28;20274;-71
2022/09/08 03:16:00;;;;;;;0.43;0.43;;;16.70;99.90;;;;;;5092720;28;20207;-71
2022/09/08 03:18:48;;;;;;;0.45;0.45;;;16.70;99.90;;;;;;5092697;28;20216;-71
2022/09/08 03:21:36;;;;;;;0.40;0.40;;;16.60;99.90;;;;;;5091988;28;20684;-71
2022/09/08 03:24:24;;;;;;;0.50;0.50;;;16.60;99.90;;;;;;5092434;28;20291;-69
2022/09/08 03:27:13;;;;;;;0.40;0.40;;;16.60;99.90;;;;;;5092850;28;20200;-71
2022/09/08 03:30:02;;;;;;;0.40;0.40;;;;;;;;;;5091768;28;20276;-70
2022/09/08 03:32:50;;;;;;;0.40;0.40;;;16.60;99.90;;;;;;5092367;28;20696;-71
2022/09/08 03:35:38;;;;;;;0.40;0.40;;;16.60;99.90;;;;;;5092873;28;20202;-71
2022/09/08 03:38:27;;;;;;;0.43;0.43;;;16.60;99.90;;;;;;5093235;28;20223;-71
2022/09/08 03:41:16;;;;;;;0.40;0.40;;;16.60;99.90;;;;;;5092609;28;20200;-71
2022/09/08 03:44:05;;;;;;;0.60;0.60;;;16.60;99.90;;;;;;5092212;28;20699;-71
2022/09/08 03:46:53;;;;;;;0.47;0.47;;;16.60;99.90;;;;;;5091971;28;20294;-71
2022/09/08 03:49:42;;;;;;;0.50;0.50;;;16.60;99.90;;;;;;5091911;28;20296;-71
2022/09/08 03:52:30;;;;;;;0.40;0.40;;;16.60;99.90;;;;;;5091569;28;20332;-71
2022/09/08 03:55:18;;;;;;;0.40;0.40;;;16.60;99.90;;;;;;5091941;28;20200;-69
2022/09/08 03:58:06;;;;;;;0.40;0.40;;;16.60;99.90;;;;;;5092942;28;20300;-68
2022/09/08 04:00:56;;;;;;;0.40;0.40;;;16.60;99.90;;;;;;5091974;28;20574;-71
2022/09/08 04:03:44;;;;;;;0.40;0.40;;;16.50;99.90;;;;;;5091463;28;20298;-67
2022/09/08 04:06:34;;;;;;;0.40;0.40;;;16.50;99.90;;;;;;5092379;28;20246;-67
2022/09/08 04:09:22;;;;;;;0.50;0.50;;;16.50;99.90;;;;;;5091587;28;20567;-69
2022/09/08 04:12:10;;;;;;;0.40;0.40;;;16.60;99.90;;;;;;5091440;28;20416;-68
2022/09/08 04:14:58;;;;;;;0.40;0.40;;;16.60;99.90;;;;;;5090775;28;20202;-71
2022/09/08 04:17:48;;;;;;;0.40;0.40;;;16.60;99.90;;;;;;5089826;28;20214;-71
2022/09/08 04:20:38;;;;;;;0.40;0.40;;;16.60;99.90;;;;;;5091425;28;20195;-71
2022/09/08 04:23:26;;;;;;;0.50;0.50;;;16.60;99.90;;;;;;5091011;28;20593;-71
2022/09/08 04:26:15;;;;;;;0.50;0.50;;;16.60;99.90;;;;;;5091652;28;20207;-69
2022/09/08 04:29:03;;;;;;;0.50;0.50;;;16.60;99.90;;;;;;5091582;28;20649;-71
2022/09/08 04:31:51;;;;;;;0.40;0.40;;;16.70;99.90;;;;;;5091651;28;20200;-70
2022/09/08 04:34:41;;;;;;;0.40;0.40;;;16.60;99.90;;;;;;5091121;28;20210;-71
2022/09/08 04:37:29;;;;;;;0.40;0.40;;;16.60;99.90;;;;;;5091438;28;20192;-69
2022/09/08 04:40:17;;;;;;;1.02;1.02;;;16.60;99.90;;;;;;5090430;28;20230;-70
2022/09/08 04:43:05;;;;;;;0.40;0.40;;;16.60;99.90;;;;;;5091221;28;20223;-71
2022/09/08 04:45:53;;;;;;;0.40;0.40;;;16.60;99.90;;;;;;5090798;28;20196;-70
2022/09/08 04:48:42;;;;;;;0.40;0.40;;;16.60;99.90;;;;;;5091358;28;20188;-72
2022/09/08 04:51:33;;;;;;;0.40;0.40;;;16.70;99.90;;;;;;5090371;28;20573;-71
2022/09/08 04:54:22;;;;;;;0.40;0.40;;;16.70;99.90;;;;;;5090625;28;20210;-71
2022/09/08 04:57:10;;;;;;;0.40;0.40;;;16.70;99.90;;;;;;5091474;28;20337;-68
2022/09/08 04:59:58;;;;;;;0.40;0.40;;;16.80;99.90;;;;;;5090219;28;20207;-72
2022/09/08 05:02:48;;;;;;;0.40;0.40;;;16.80;99.90;;;;;;5091158;28;20722;-72
2022/09/08 05:05:37;;;;;;;0.40;0.40;;;16.80;99.90;;;;;;5090774;28;20673;-70
2022/09/08 05:08:26;;;;;;;0.40;0.40;;;16.80;99.90;;;;;;5091042;28;20712;-71
2022/09/08 05:11:14;;;;;;;0.50;0.50;;;16.80;99.90;;;;;;5090508;28;20237;-68
2022/09/08 05:14:04;;;;;;;0.40;0.40;;;16.80;99.90;;;;;;5090400;28;20734;-71
2022/09/08 05:16:52;;;;;;;0.40;0.40;;;16.80;99.90;;;;;;5091972;28;20206;-69
2022/09/08 05:19:40;;;;;;;0.40;0.40;;;16.80;99.90;;;;;;5094174;28;20602;-71
2022/09/08 05:22:28;;;;;;;0.40;0.40;;;16.90;99.90;;;;;;5094999;28;20231;-69
2022/09/08 05:25:17;;;;;;;0.40;0.40;;;16.90;99.90;;;;;;5094419;28;20249;-68
2022/09/08 05:28:05;;;;;;;0.50;0.50;;;16.90;99.90;;;;;;5095112;28;20597;-68
2022/09/08 05:30:53;;;;;;;0.40;0.40;;;16.90;99.90;;;;;;5094656;28;20207;-68
2022/09/08 05:33:41;;;;;;;0.40;0.40;;;17.00;99.90;;;;;;5094127;28;20284;-68
2022/09/08 05:36:31;;;;;;;0.50;0.50;;;17.00;99.90;;;;;;5094307;28;20200;-70
2022/09/08 05:39:19;;;;;;;0.50;0.50;;;17.00;99.90;;;;;;5084471;28;20219;-65
2022/09/08 05:42:09;;;;;;;0.40;0.40;;;17.10;99.90;;;;;;5086080;28;20203;-69
2022/09/08 05:44:57;;;;;;;0.40;0.40;;;17.10;99.90;;;;;;5094075;28;20247;-69
2022/09/08 05:47:45;;;;;;;0.40;0.40;;;17.10;99.90;;;;;;5073792;28;20277;-71
2022/09/08 05:50:34;;;;;;;0.40;0.40;;;17.10;99.90;;;;;;5073602;28;20192;-67
2022/09/08 05:53:22;;;;;;;0.40;0.40;;;17.10;99.90;;;;;;5074658;28;20302;-71
2022/09/08 05:56:11;;;;;;;0.40;0.40;;;17.50;99.90;;;;;;5074384;28;20205;-71
2022/09/08 05:59:00;;;;;;;0.40;0.40;;;17.20;99.90;;;;;;5073875;28;20200;-68
2022/09/08 06:01:48;;;;;;;0.40;0.40;;;17.30;99.90;;;;;;5078478;28;20264;-68
2022/09/08 06:04:36;;;;;;;0.50;0.50;;;17.30;99.90;;;;;;5090296;28;20279;-68
2022/09/08 06:07:25;;;;;;;0.70;0.70;;;17.30;99.90;;;;;;5092724;28;20233;-69
2022/09/08 06:10:13;;;;;;;0.40;0.40;;;17.30;99.90;;;;;;5073408;28;20192;-70
2022/09/08 06:13:01;;;;;;;0.40;0.40;;;17.30;99.90;;;;;;5073110;28;20239;-67
2022/09/08 06:15:51;;;;;;;0.40;0.40;;;17.30;99.90;;;;;;5073180;28;20650;-68
2022/09/08 06:18:41;;;;;;;0.40;0.40;;;17.40;99.90;;;;;;5073591;28;20284;-68
2022/09/08 06:21:31;;;;;;;0.50;0.50;;;17.40;99.90;;;;;;5086696;28;20328;-70
2022/09/08 06:24:19;;;;;;;0.40;0.40;;;17.50;99.90;;;;;;5072523;28;20279;-69
2022/09/08 06:27:15;;;;;;;0.40;0.40;;;17.50;99.90;;;;;;5073334;28;20695;-69
2022/09/08 06:30:09;;;;;;;0.40;0.40;;;17.60;99.90;;;;;;5073028;28;20193;-70
2022/09/08 06:33:02;;;;;;;0.40;0.40;;;17.70;99.90;;;;;;5073050;28;20701;-70
2022/09/08 06:35:57;;;;;;;0.40;0.40;;;17.70;99.90;;;;;;5072918;28;20664;-67
2022/09/08 06:38:50;;;;;;;0.40;0.40;;;17.70;99.90;;;;;;5073335;28;20572;-70
2022/09/08 06:41:45;;;;;;;0.40;0.40;;;17.80;99.90;;;;;;5073470;28;20223;-69
2022/09/08 06:44:37;;;;;;;0.40;0.40;;;17.70;99.90;;;;;;5073107;28;20280;-70
2022/09/08 06:47:34;;;;;;;0.82;0.82;;;17.80;99.90;;;;;;5073233;28;20322;-68
2022/09/08 06:50:25;;;;;;;0.40;0.40;;;17.80;99.90;;;;;;5072532;28;20193;-68
2022/09/08 06:53:25;;;;;;;0.40;0.40;;;17.80;99.90;;;;;;5073365;28;20213;-68
2022/09/08 06:56:24;;;;;;;0.40;0.40;;;17.80;99.90;;;;;;5073506;28;20275;-70
2022/09/08 06:59:48;;;;;;;0.40;0.40;;;17.80;99.90;;;;;;5092060;28;20699;-67
2022/09/08 07:02:49;;;;;;;0.40;0.40;;;17.90;99.90;;;;;;5092968;28;20594;-68
2022/09/08 07:05:51;;;;;;;0.40;0.40;;;18.20;99.90;;;;;;5092288;28;20200;-68
2022/09/08 07:09:02;;;;;;;0.40;0.40;;;18.10;99.90;;;;;;5092853;28;20679;-68
2022/09/08 07:12:04;;;;;;;0.40;0.40;;;18.30;99.90;;;;;;5092832;28;20249;-69
2022/09/08 07:15:04;;;;;;;0.40;0.40;;;18.40;99.90;;;;;;5092324;28;20301;-67
2022/09/08 07:17:57;;;;;;;0.40;0.40;;;18.60;99.90;;;;;;5093266;28;20257;-68
2022/09/08 07:20:46;;;;;;;0.40;0.40;;;18.70;99.90;;;;;;5092323;28;20688;-67
2022/09/08 07:23:37;;;;;;;0.40;0.40;;;18.90;99.90;;;;;;5092361;28;20747;-68
2022/09/08 07:26:32;;;;;;;0.40;0.40;;;19.00;99.90;;;;;;5092186;28;20199;-68
2022/09/08 07:29:26;;;;;;;0.50;0.50;;;19.10;99.90;;;;;;5092066;28;20200;-67
2022/09/08 07:32:18;;;;;;;0.40;0.40;;;19.40;99.90;;;;;;5091720;28;20785;-67
2022/09/08 07:35:13;;;;;;;0.40;0.40;;;19.40;99.90;;;;;;5086974;28;20668;-69
2022/09/08 07:37:46;;;;;;;0.40;0.40;;;19.60;99.90;;;;;;5092758;28;20604;-70
2022/09/08 07:40:17;;;;;;;0.47;0.47;;;19.60;99.90;;;;;;5082755;28;20254;-68
2022/09/08 07:42:49;;;;;;;0.40;0.40;;;19.70;99.90;;;;;;5088030;28;20220;-70
2022/09/08 07:45:17;;;;;;;0.40;0.40;;;19.70;99.90;;;;;;5092698;28;20203;-70
2022/09/08 07:48:02;;;;;;;0.40;0.40;;;19.80;99.90;;;;;;5092716;28;20257;-71
2022/09/08 07:53:38;;;;;;;0.40;0.40;;;20.10;99.90;;;;;;5081273;28;20212;-68
2022/09/08 07:56:13;;;;;;;0.40;0.40;;;20.10;99.90;;;;;;5089243;28;20192;-69
2022/09/08 07:58:50;;;;;;;0.40;0.40;;;20.20;99.90;;;;;;5091792;28;20206;-70
2022/09/08 08:01:32;;;;;;;0.40;0.40;;;20.50;99.90;;;;;;5089907;28;20247;-72
2022/09/08 08:04:17;;;;;;;0.40;0.40;;;20.50;99.90;;;;;;5092883;28;20219;-73
2022/09/08 08:06:49;;;;;;;0.40;0.40;;;20.70;99.90;;;;;;5093075;28;20200;-72
2022/09/08 08:09:28;;;;;;;0.50;0.50;;;20.80;99.90;;;;;;5092301;28;20248;-73
2022/09/08 08:12:06;;;;;;;0.40;0.40;;;20.80;99.90;;;;;;5092743;28;20191;-71
2022/09/08 08:14:43;;;;;;;0.40;0.40;;;20.90;99.90;;;;;;5092244;28;20204;-73
2022/09/08 08:17:27;;;;;;;0.40;0.40;;;20.80;99.90;;;;;;5084240;28;20255;-71
2022/09/08 08:20:16;;;;;;;0.50;0.50;;;20.90;99.90;;;;;;5072007;28;20203;-73
2022/09/08 08:23:15;;;;;;;0.50;0.50;;;20.90;99.90;;;;;;5077545;28;20219;-74
2022/09/08 08:25:53;;;;;;;0.40;0.40;;;20.90;99.90;;;;;;5087630;28;20196;-76
2022/09/08 08:28:22;;;;;;;0.40;0.40;;;20.80;99.90;;;;;;5072654;28;20227;-77
2022/09/08 08:31:09;;;;;;;0.40;0.40;;;20.60;99.90;;;;;;5087794;28;20212;-79
2022/09/08 08:33:42;;;;;;;0.40;0.40;;;20.50;99.90;;;;;;5092468;28;20226;-78
2022/09/08 08:36:12;;;;;;;0.50;0.50;;;20.40;99.90;;;;;;5084505;28;20207;-75
2022/09/08 08:38:44;;;;;;;0.40;0.40;;;20.40;99.90;;;;;;5085275;28;20209;-72
2022/09/08 08:41:25;;;;;;;0.40;0.40;;;20.20;99.90;;;;;;5093175;28;20246;-82
2022/09/08 08:44:20;;;;;;;0.40;0.40;;;20.10;99.90;;;;;;5091963;28;20277;-73
2022/09/08 08:47:11;;;;;;;0.40;0.40;;;20.00;99.90;;;;;;5092149;28;20264;-72
2022/09/08 08:50:09;;;;;;;0.40;0.40;;;19.80;99.90;;;;;;5075884;28;20203;-81
2022/09/08 08:52:55;;;;;;;0.40;0.40;;;19.50;99.90;;;;;;5075704;28;20299;-76
2022/09/08 08:55:46;;;;;;;0.68;0.68;;;19.40;99.90;;;;;;5082713;28;20208;-68
2022/09/08 08:58:31;;;;;;;0.40;0.40;;;19.40;99.90;;;;;;5081429;28;20207;-69
2022/09/08 09:01:21;;;;;;;0.50;0.50;;;19.40;99.90;;;;;;5088191;28;20227;-69
2022/09/08 09:04:02;;;;;;;0.40;0.40;;;19.40;99.90;;;;;;5084425;28;20221;-67
2022/09/08 09:06:54;;;;;;;0.40;0.40;;;19.30;99.90;;;;;;5089886;28;20234;-69
2022/09/08 09:09:39;;;;;;;0.50;0.50;;;19.20;99.90;;;;;;5080045;28;20191;-69
2022/09/08 09:12:35;;;;;;;0.45;0.45;;;19.10;99.90;;;;;;5095920;28;20200;-70
2022/09/08 09:15:20;;;;;;;0.40;0.40;;;19.00;99.90;;;;;;5095377;28;20235;-69
2022/09/08 09:18:32;;;;;;;0.40;0.40;;;18.90;99.90;;;;;;5095373;28;20291;-70
2022/09/08 09:21:04;;;;;;;0.40;0.40;;;18.90;99.90;;;;;;5090760;28;20213;-68
2022/09/08 09:23:40;;;;;;;0.40;0.40;;;18.80;99.90;;;;;;5080745;28;20208;-68
2022/09/08 09:26:18;;;;;;;0.40;0.40;;;18.80;99.90;;;;;;5095525;28;20260;-70
2022/09/08 09:29:04;;;;;;;0.45;0.45;;;18.70;99.90;;;;;;5094945;28;20191;-71
2022/09/08 09:32:04;;;;;;;0.60;0.60;;;18.70;99.90;;;;;;5095051;28;20241;-68
2022/09/08 09:35:02;;;;;;;0.40;0.40;;;18.50;99.90;;;;;;5095054;28;20231;-67
2022/09/08 09:38:00;;;;;;;0.40;0.40;;;18.50;99.90;;;;;;5073173;28;20242;-68
2022/09/08 09:40:45;;;;;;;0.40;0.40;;;18.30;99.90;;;;;;5053887;28;20209;-69
2022/09/08 09:43:26;;;;;;;0.40;0.40;;;18.20;99.90;;;;;;5074682;28;20216;-68
2022/09/08 09:46:07;;;;;;;0.40;0.40;;;18.20;99.90;;;;;;5082718;28;20192;-67
2022/09/08 09:49:04;;;;;;;0.40;0.40;;;18.00;99.90;;;;;;5086207;28;20192;-68
2022/09/08 09:51:48;;;;;;;0.50;0.50;;;18.00;99.90;;;;;;5094027;28;20281;-69
2022/09/08 09:54:37;;;;;;;0.40;0.40;;;17.90;99.90;;;;;;5083049;28;20212;-69
2022/09/08 09:57:56;;;;;;;0.40;0.40;;;17.90;99.90;;;;;;5095292;28;20196;-70
2022/09/08 10:00:27;;;;;;;0.40;0.40;;;17.70;99.90;;;;;;5018912;28;20201;-74
2022/09/08 10:03:34;;;;;;;0.70;0.60;;;17.60;99.90;;;;;;5023119;28;20242;-69
2022/09/08 10:06:23;;;;;;;1.50;1.40;;;17.30;99.90;;;;;;5071013;28;20201;-67
2022/09/08 10:09:32;;;;;;;0.90;0.90;;;17.10;99.90;;;;;;5086723;28;20196;-72
2022/09/08 10:12:35;;;;;;;0.40;0.40;;;16.70;99.90;;;;;;5080595;28;20258;-68
2022/09/08 10:15:39;;;;;;;0.50;0.50;;;16.70;99.90;;;;;;5084205;28;20200;-68
2022/09/08 10:18:39;;;;;;;0.50;0.50;;;16.50;99.90;;;;;;5082144;28;20215;-66
2022/09/08 10:21:53;;;;;;;0.50;0.50;;;16.40;99.90;;;;;;5084353;28;20196;-72
2022/09/08 10:25:06;;;;;;;0.40;0.40;;;16.40;99.90;;;;;;5086074;28;20219;-66
2022/09/08 10:28:09;;;;;;;0.57;0.57;;;16.50;99.90;;;;;;5083436;28;20242;-70
2022/09/08 10:31:17;;;;;;;0.40;0.40;;;16.50;99.90;;;;;;5073501;28;20280;-67
2022/09/08 10:34:14;;;;;;;0.40;0.40;;;16.40;99.90;;;;;;5082933;28;20236;-65
2022/09/08 10:36:58;;;;;;;1.88;1.52;;;16.40;99.90;;;;;;5077441;28;20205;-65
2022/09/08 10:39:41;;;;;;;0.80;0.80;;;16.30;99.90;;;;;;5083534;28;20192;-67
2022/09/08 10:42:32;;;;;;;0.50;0.50;;;15.30;99.90;;;;;;5085758;28;20296;-67
2022/09/08 10:45:18;;;;;;;0.80;0.80;;;14.90;99.90;;;;;;5084533;28;20201;-67
2022/09/08 10:48:24;;;;;;;0.50;0.50;;;14.90;99.90;;;;;;5084609;28;20197;-66
2022/09/08 10:50:54;;;;;;;0.50;0.50;;;14.80;99.90;;;;;;5085555;28;20231;-67
2022/09/08 10:53:37;;;;;;;0.40;0.40;;;15.00;99.90;;;;;;5091065;28;20223;-66
2022/09/08 10:56:08;;;;;;;0.40;0.40;;;15.30;99.90;;;;;;5075709;28;20279;-66
2022/09/08 10:59:23;;;;;;;3.13;2.93;;;15.50;99.90;;;;;;5075850;28;20470;-66
2022/09/08 11:02:29;;;;;;;0.40;0.40;;;15.60;99.90;;;;;;5076188;28;20212;-70
2022/09/08 11:05:35;;;;;;;0.50;0.50;;;15.60;99.90;;;;;;5075464;28;20204;-66
2022/09/08 11:08:39;;;;;;;0.40;0.40;;;15.80;99.90;;;;;;5084423;28;20256;-67
2022/09/08 11:11:36;;;;;;;0.40;0.40;;;15.80;99.90;;;;;;5086358;28;20257;-68
2022/09/08 11:14:15;;;;;;;0.40;0.40;;;15.90;99.90;;;;;;5066621;28;20231;-69
2022/09/08 11:17:11;;;;;;;0.50;0.50;;;15.90;99.90;;;;;;5078353;28;20205;-69
2022/09/08 11:19:41;;;;;;;0.80;0.80;;;16.00;99.90;;;;;;5072066;28;20289;-67
2022/09/08 11:22:17;;;;;;;0.40;0.40;;;15.80;99.90;;;;;;5077719;28;20224;-68
2022/09/08 11:24:55;;;;;;;0.40;0.40;;;15.80;99.90;;;;;;5086695;28;20203;-69
2022/09/08 11:27:36;;;;;;;0.50;0.50;;;15.90;99.90;;;;;;5083190;28;20325;-70
2022/09/08 11:30:15;;;;;;;0.57;0.57;;;16.20;99.90;;;;;;5074952;28;20195;-69
2022/09/08 11:32:54;;;;;;;0.40;0.40;;;16.30;99.90;;;;;;5082912;28;20302;-68
2022/09/08 11:35:48;;;;;;;0.40;0.40;;;16.40;99.90;;;;;;5085725;28;20200;-68
2022/09/08 11:38:30;;;;;;;0.40;0.40;;;16.50;99.90;;;;;;5086080;28;20196;-70
2022/09/08 11:41:31;;;;;;;0.40;0.40;;;16.50;99.90;;;;;;5086503;28;20276;-70
2022/09/08 11:44:17;;;;;;;0.47;0.47;;;16.50;99.90;;;;;;5081510;28;20303;-71
2022/09/08 11:47:03;;;;;;;0.40;0.40;;;16.50;99.90;;;;;;5091932;28;20208;-69
2022/09/08 11:50:11;;;;;;;0.40;0.40;;;16.60;99.90;;;;;;5091458;28;20191;-71
2022/09/08 11:53:37;;;;;;;0.40;0.40;;;16.90;99.90;;;;;;5092802;28;20223;-73
2022/09/08 11:56:54;;;;;;;0.40;0.40;;;17.30;99.90;;;;;;5090415;28;20200;-67
2022/09/08 11:59:40;;;;;;;0.40;0.40;;;17.50;99.90;;;;;;5072098;28;20201;-69
2022/09/08 12:02:31;;;;;;;0.40;0.40;;;17.50;99.90;;;;;;5072193;28;20197;-71
2022/09/08 12:05:13;;;;;;;0.40;0.40;;;17.50;99.90;;;;;;5071985;28;20696;-69
2022/09/08 12:08:30;;;;;;;0.40;0.40;;;17.40;99.90;;;;;;5072249;28;20196;-67
2022/09/08 12:11:11;;;;;;;0.40;0.40;;;17.40;99.90;;;;;;5071938;28;20277;-70
2022/09/08 12:13:46;;;;;;;0.40;0.40;;;17.40;99.90;;;;;;5071043;28;20219;-70
2022/09/08 12:16:42;;;;;;;0.40;0.40;;;17.40;99.90;;;;;;5071988;28;20315;-69
2022/09/08 12:19:25;;;;;;;1.70;1.60;;;17.40;99.90;;;;;;5071868;28;20239;-66
2022/09/08 12:22:13;;;;;;;0.40;0.40;;;17.80;99.90;;;;;;5071723;28;20243;-67
2022/09/08 12:25:32;;;;;;;0.40;0.40;;;17.80;99.90;;;;;;5071920;28;20686;-68
2022/09/08 12:28:53;;;;;;;0.40;0.40;;;18.20;99.90;;;;;;5071848;28;20207;-69
2022/09/08 12:31:58;;;;;;;0.40;0.40;;;18.50;99.90;;;;;;5071841;28;20199;-72
2022/09/08 12:35:08;;;;;;;0.40;0.40;;;18.50;99.90;;;;;;5072324;28;20215;-70
2022/09/08 12:38:04;;;;;;;0.40;0.40;;;18.60;99.90;;;;;;5071122;28;20196;-70
2022/09/08 12:41:08;;;;;;;0.50;0.50;;;18.60;99.90;;;;;;5071409;28;20665;-70
2022/09/08 12:44:06;;;;;;;0.40;0.40;;;18.70;99.90;;;;;;5070355;28;20269;-69
2022/09/08 12:47:17;;;;;;;0.40;0.40;;;18.90;99.90;;;;;;5071114;28;20574;-69
2022/09/08 12:50:19;;;;;;;0.40;0.40;;;19.10;99.90;;;;;;5070922;28;20200;-68
2022/09/08 12:53:31;;;;;;;0.40;0.40;;;19.20;99.90;;;;;;5081350;28;20223;-66
2022/09/08 12:56:30;;;;;;;0.40;0.40;;;19.20;99.90;;;;;;5079790;28;20193;-67
2022/09/08 12:59:37;;;;;;;0.50;0.50;;;19.30;99.90;;;;;;5070518;28;20219;-67
2022/09/08 13:02:50;;;;;;;0.60;0.60;;;19.40;99.90;;;;;;5070961;28;20595;-66
2022/09/08 13:06:06;;;;;;;0.40;0.40;;;19.80;99.90;;;;;;5072471;28;20615;-64
2022/09/08 13:09:00;;;;;;;0.63;0.63;;;20.40;99.90;;;;;;5071782;28;20734;-64
2022/09/08 13:12:05;;;;;;;0.40;0.40;;;20.90;99.90;;;;;;5073473;28;20661;-64
2022/09/08 13:15:03;;;;;;;0.40;0.40;;;20.80;99.90;;;;;;5074900;28;20196;-66
2022/09/08 13:18:02;;;;;;;0.40;0.40;;;20.60;99.90;;;;;;5072830;28;20211;-66
2022/09/08 13:20:54;;;;;;;0.40;0.40;;;20.50;99.90;;;;;;5072724;28;20257;-65
2022/09/08 13:23:47;;;;;;;0.40;0.40;;;20.20;99.90;;;;;;5073654;28;20263;-65
2022/09/08 13:26:55;;;;;;;0.73;0.73;;;20.10;99.90;;;;;;5075074;28;20246;-65
2022/09/08 13:30:00;;;;;;;0.40;0.40;;;19.90;99.90;;;;;;5080744;28;20263;-66
2022/09/08 13:33:36;;;;;;;0.40;0.40;;;19.70;99.90;;;;;;5074212;28;20584;-65
2022/09/08 13:36:34;;;;;;;1.77;1.67;;;19.50;99.90;;;;;;5072431;28;20649;-66
2022/09/08 13:39:46;;;;;;;0.40;0.40;;;19.40;99.90;;;;;;5072989;28;20203;-66
2022/09/08 13:42:50;;;;;;;0.40;0.40;;;19.40;99.90;;;;;;5090096;28;20212;-66
2022/09/08 13:45:47;;;;;;;0.47;0.47;;;19.30;99.90;;;;;;5093282;28;20210;-69
2022/09/08 13:48:56;;;;;;;0.60;0.60;;;19.20;99.90;;;;;;5091972;28;20207;-66
2022/09/08 13:51:57;;;;;;;0.40;0.40;;;19.00;99.90;;;;;;5074408;28;20257;-67
2022/09/08 13:55:19;;;;;;;0.40;0.40;;;19.00;99.90;;;;;;5078137;28;20432;-69
2022/09/08 13:58:36;;;;;;;0.40;0.40;;;18.90;99.90;;;;;;5083287;28;20279;-68
2022/09/08 14:01:40;;;;;;;0.40;0.40;;;18.80;99.90;;;;;;5081731;28;20242;-70
2022/09/08 14:04:39;;;;;;;0.40;0.40;;;18.80;99.90;;;;;;5072962;28;20220;-69
2022/09/08 14:07:28;;;;;;;0.40;0.40;;;18.70;99.90;;;;;;5072767;28;20201;-68
2022/09/08 14:10:23;;;;;;;0.40;0.40;;;18.70;99.90;;;;;;5073840;28;20280;-68
2022/09/08 14:13:27;;;;;;;0.40;0.40;;;18.70;99.90;;;;;;5073340;28;20226;-68
2022/09/08 14:16:29;;;;;;;0.40;0.40;;;18.70;99.90;;;;;;5073090;28;20200;-65
2022/09/08 14:19:44;;;;;;;0.40;0.40;;;18.60;99.90;;;;;;5073335;28;20234;-70
2022/09/08 14:22:47;;;;;;;0.40;0.40;;;18.70;99.90;;;;;;5074701;28;20221;-68
2022/09/08 14:25:36;;;;;;;0.40;0.40;;;18.60;99.90;;;;;;5074732;28;20204;-66
2022/09/08 14:28:28;;;;;;;0.40;0.40;;;18.40;99.90;;;;;;5073069;28;20283;-67
2022/09/08 14:31:24;;;;;;;0.40;0.40;;;18.40;99.90;;;;;;5073709;28;20216;-68
2022/09/08 14:34:24;;;;;;;0.75;0.75;;;18.50;99.90;;;;;;5073451;28;20899;-69
2022/09/08 14:37:15;;;;;;;0.40;0.40;;;18.50;99.90;;;;;;5072274;28;20283;-66
2022/09/08 14:40:19;;;;;;;0.40;0.40;;;18.60;99.90;;;;;;5073572;28;20700;-71
2022/09/08 14:43:22;;;;;;;0.40;0.40;;;18.50;99.90;;;;;;5072545;28;20216;-67
2022/09/08 14:46:17;;;;;;;0.40;0.40;;;18.50;99.90;;;;;;5088916;28;20326;-66
2022/09/08 14:49:20;;;;;;;0.40;0.40;;;18.50;99.90;;;;;;5092488;28;20279;-69
2022/09/08 14:52:24;;;;;;;0.40;0.40;;;18.40;99.90;;;;;;5078045;28;20206;-70
2022/09/08 14:55:20;;;;;;;0.40;0.40;;;18.50;99.90;;;;;;5073798;28;20644;-67
2022/09/08 14:58:23;;;;;;;0.40;0.40;;;18.40;99.90;;;;;;5082273;28;20733;-68
2022/09/08 15:01:23;;;;;;;0.40;0.40;;;18.40;99.90;;;;;;5081733;28;20285;-70
2022/09/08 15:04:17;;;;;;;0.40;0.40;;;18.40;99.90;;;;;;5082140;28;20221;-69
2022/09/08 15:07:13;;;;;;;0.40;0.40;;;18.30;99.90;;;;;;5083102;28;20673;-68